WEATHER DATA

YESTERDAY
Time Temp. Dewp. Hum. Wind dir Wind speed Wind gust Bar. 1h Prec. 24h Prec.
00:04 1.6 0.7 94 140 0.8 2.2 1002.9 0.0000 0.0000
00:14 1.6 0.7 94 150 0.8 2.5 1003 0.0000 0.0000
00:23 1.6 0.7 94 149 1.1 2.5 1003 0.0000 0.0000
00:34 1.6 0.7 94 142 0.8 2.2 1003 0.0000 0.0000
00:44 1.6 0.7 94 135 0.8 1.7 1002.8 0.0000 0.0000
00:54 1.5 0.6 94 135 0.6 1.9 1002.6 0.0000 0.0000
01:03 1.5 0.8 95 142 0.3 1.4 1002.6 0.0000 0.0000
01:14 1.5 0.8 95 135 0.6 1.4 1002.4 0.0000 0.0000
01:24 1.5 0.8 95 133 0.8 2.2 1002.4 0.0000 0.0000
01:34 1.5 0.8 95 141 1.1 2.2 1002.4 0.0000 0.0000
01:44 1.6 0.9 95 146 0.8 2.5 1002.3 0.0000 0.0000
01:59 1.6 0.9 95 144 1.1 2.5 1002.4 0.0000 0.0000
02:09 1.6 0.9 95 136 0.8 2.5 1002.2 0.0000 0.0000
02:19 1.6 0.9 95 138 0.8 2.5 1002.2 0.0000 0.0000
02:29 1.6 0.9 95 145 0.8 2.5 1002.1 0.0000 0.0000
02:39 1.6 0.7 94 144 0.6 1.9 1002.1 0.0000 0.0000
02:49 1.6 0.7 94 148 0.8 1.9 1002 0.0000 0.0000
03:00 1.6 0.7 94 141 1.1 2.5 1001.9 0.0000 0.0000
03:09 1.6 0.7 94 135 0.8 2.5 1001.9 0.0000 0.0000
03:19 1.4 0.5 94 146 1.1 3.1 1001.9 0.1010 0.1000
03:29 1.2 0.5 95 136 0.8 1.9 1001.9 0.1010 0.1000
03:40 1.1 0.4 95 135 1.1 2.8 1001.7 0.2020 0.2000
03:49 1 0.3 95 143 1.1 3.1 1001.6 0.2020 0.2000
03:59 0.9 0.2 95 139 0.6 2.2 1001.6 0.2020 0.2000
04:10 0.8 0.2 96 154 0.8 1.7 1001.6 0.3030 0.3000
04:20 0.8 0.2 96 151 0.8 2.2 1001.6 0.2020 0.3000
04:31 0.7 0.1 96 136 0.8 1.7 1001.5 0.3030 0.4000
04:40 0.6 0 96 135 0.6 1.7 1001.4 0.2020 0.4000
04:51 0.6 0 96 150 0.6 1.7 1001.6 0.2020 0.4000
05:01 0.6 0 96 155 0.6 1.7 1001.4 0.3030 0.5000
05:11 0.6 0 96 129 0.6 1.7 1001.3 0.2020 0.5000
05:21 0.6 0 96 137 0.6 1.4 1001.1 0.2020 0.5000
05:31 0.7 0.1 96 152 0.6 1.9 1001.3 0.1010 0.5000
05:41 0.7 0.3 97 146 0.8 1.9 1001.1 0.1010 0.5000
05:51 0.8 0.4 97 151 0.8 1.9 1001.1 0.1010 0.5000
06:01 0.8 0.4 97 151 0.6 1.9 1001.1 0.1010 0.6000
06:11 0.9 0.5 97 136 0.8 1.7 1001 0.1010 0.6000
06:21 0.9 0.5 97 138 0.6 1.9 1000.9 0.1010 0.6000
06:31 1 0.6 97 136 0.8 2.5 1000.9 0.1010 0.6000
06:41 1 0.6 97 152 0.8 1.9 1000.8 0.1010 0.6000
06:51 1.1 0.7 97 149 0.8 2.5 1000.8 0.1010 0.6000
07:01 1.1 0.7 97 146 0.8 1.9 1000.6 0.0000 0.6000
07:12 1.1 0.5 96 164 0.8 1.9 1000.6 0.0000 0.6000
07:21 1.1 0.5 96 158 1.1 1.9 1000.8 0.0000 0.6000
07:31 1.1 0.5 96 144 1.1 2.5 1000.6 0.1010 0.7000
07:42 1 0.4 96 170 0.8 2.5 1000.5 0.2020 0.8000
07:51 0.9 0.3 96 155 0.6 1.7 1000.6 0.2020 0.8000
07:55 0.9 0.3 96 161 0.8 2.2 1000.6 0.3030 0.9000
08:05 0.8 0.2 96 169 1.1 2.2 1000.7 0.3030 0.9000
08:14 0.8 0.2 96 138 0.8 1.9 1000.6 0.3030 0.9000
08:25 0.8 0.4 97 149 0.8 2.2 1000.6 0.2020 0.9000
08:35 0.8 0.4 97 143 0.8 1.4 1000.4 0.2020 1.0000
08:45 0.7 0.3 97 155 0.8 1.7 1000.4 0.2020 1.0000
08:55 0.7 0.3 97 156 0.8 1.9 1000.7 0.1010 1.0000
09:05 0.6 0.2 97 143 0.8 1.4 1000.8 0.1010 1.0000
09:16 0.6 0.2 97 143 0.8 1.4 1000.8 0.2020 1.1000
09:25 0.6 0.2 97 153 0.8 1.7 1000.8 0.3030 1.2000
09:35 0.7 0.3 97 136 0.8 2.2 1000.7 0.3030 1.3000
09:45 0.7 0.3 97 136 1.1 3.6 1000.7 0.3030 1.3000
09:56 0.7 0.3 97 160 1.1 2.2 1000.7 0.3030 1.3000
10:05 0.7 0.3 97 141 1.4 2.8 1000.8 0.2020 1.3000
10:14 0.8 0.4 97 150 1.1 2.2 1001 0.2020 1.3000
10:26 0.8 0.4 97 145 0.8 1.9 1000.7 0.1010 1.3000
10:36 0.9 0.5 97 167 0.8 2.5 1000.8 0.0000 1.3000
10:45 0.9 0.5 97 152 0.8 1.9 1000.8 0.0000 1.3000
10:55 1 0.6 97 163 0.8 2.8 1000.8 0.0000 1.3000
11:06 1.1 0.7 97 155 1.1 2.8 1000.8 0.0000 1.3000
11:16 1.1 0.7 97 161 1.1 1.9 1000.6 0.0000 1.3000
11:25 1.2 0.8 97 157 0.8 1.7 1000.6 0.0000 1.3000
11:36 1.2 0.8 97 165 0.8 1.9 1000.6 0.0000 1.3000
11:46 1.2 0.8 97 164 1.1 2.2 1000.6 0.0000 1.3000
11:56 1.2 0.8 97 172 1.4 3.1 1000.7 0.0000 1.3000
12:06 1.2 0.8 97 162 1.1 2.2 1000.7 0.0000 1.3000
12:16 1.2 0.8 97 153 1.1 2.8 1000.5 0.0000 1.3000
12:26 1.3 0.9 97 162 1.1 2.5 1000.6 0.0000 1.3000
12:36 1.3 0.9 97 168 1.1 2.2 1000.7 0.0000 1.3000
12:46 1.3 0.9 97 162 0.8 3.1 1000.7 0.0000 1.3000
12:56 1.3 0.9 97 158 0.8 2.5 1000.7 0.0000 1.3000
13:10 1.3 0.9 97 160 1.1 2.2 1000.6 0.0000 1.3000
13:21 1.3 0.9 97 158 0.8 2.5 1000.7 0.0000 1.3000
13:31 1.3 0.9 97 152 0.8 1.7 1000.6 0.0000 1.3000
13:41 1.2 0.8 97 158 1.1 3.6 1000.4 0.0000 1.3000
13:51 1.3 0.9 97 146 0.8 1.9 1000.4 0.0000 1.3000
14:01 1.3 0.9 97 147 0.6 2.2 1000.3 0.0000 1.3000
14:11 1.3 0.9 97 145 0.8 2.8 1000.1 0.0000 1.3000
14:21 1.2 0.6 96 135 0.8 2.5 1000.1 0.0000 1.3000
14:31 1.2 0.6 96 137 0.6 2.2 999.9 0.0000 1.3000
14:41 1.2 0.6 96 140 0.8 1.9 1000.2 0.0000 1.3000
14:51 1.2 0.6 96 138 0.6 1.9 1000.2 0.0000 1.3000
15:01 1.2 0.6 96 90 0.3 1.1 1000.1 0.0000 1.3000
15:11 1.1 0.7 97 139 0.6 1.9 1000.3 0.0000 1.3000
15:21 1.1 0.7 97 141 0.6 1.7 1000.2 0.0000 1.3000
15:31 1.1 0.7 97 144 0.6 1.9 1000 0.0000 1.3000
15:41 1.1 0.7 97 137 0.8 1.4 1000.1 0.1010 1.4000
15:51 1.2 0.8 97 149 0.8 1.7 1000.2 0.1010 1.4000
16:01 1.1 0.5 96 116 0.6 1.7 999.8 0.2020 1.5000
16:12 1.1 0.7 97 116 0.6 1.7 999.9 0.2020 1.5000
16:26 1.2 0.8 97 168 0.6 1.9 1000.1 0.2020 1.5000
16:36 1.2 0.8 97 155 0.8 1.9 1000.1 0.1010 1.5000
16:47 1.3 0.7 96 150 0.6 1.4 1000.1 0.1010 1.5000
16:57 1.3 0.7 96 148 0.6 1.4 1000.1 0.0000 1.5000
17:07 1.3 0.7 96 148 0.8 2.2 1000.1 0.0000 1.5000
17:16 1.4 0.8 96 137 0.6 1.7 999.9 0.0000 1.5000
17:27 1.4 0.8 96 159 0.8 1.7 999.9 0.0000 1.5000
17:37 1.4 0.8 96 161 1.1 2.8 999.9 0.0000 1.5000
17:46 1.5 0.9 96 158 1.1 2.5 999.9 0.0000 1.5000
17:57 1.5 0.9 96 171 1.1 3.6 999.7 0.0000 1.5000
18:07 1.5 0.9 96 156 1.4 3.3 999.8 0.0000 1.5000
18:17 1.5 0.9 96 167 1.1 3.9 999.8 0.0000 1.5000
18:27 1.5 0.9 96 174 1.7 3.3 999.6 0.0000 1.5000
18:37 1.5 0.9 96 174 1.7 3.3 999.7 0.0000 1.5000
18:47 1.5 0.9 96 174 1.7 3.3 999.8 0.0000 1.5000
18:57 1.5 0.9 96 0 0 999.7 0.0000 1.5000
19:08 1.5 0.9 96 0 0 999.8 0.0000 1.5000
19:13 1.5 0.9 96 174 1.7 3.3 999.7 0.0000 1.5000
19:22 1.5 0.9 96 154 0.8 1.7 999.6 0.0000 1.5000
19:32 1.5 0.9 96 154 0.6 1.7 999.6 0.0000 1.5000
19:43 1.6 1 96 173 1.7 3.1 999.6 0.0000 1.5000
20:02 1.7 1.1 96 140 0.8 2.2 999.7 0.0000 1.5000
20:13 1.7 1 95 163 0.8 2.5 999.8 0.0000 1.5000
20:23 1.7 1 95 167 0.8 2.5 999.5 0.0000 1.5000
20:32 1.7 1 95 173 1.1 3.1 999.6 0.0000 1.5000
20:42 1.8 1.1 95 165 1.1 2.5 999.5 0.0000 1.5000
20:53 1.8 1.1 95 164 1.4 3.3 999.6 0.0000 1.5000
21:03 1.8 1.1 95 167 1.4 2.8 999.5 0.0000 1.5000
21:12 1.9 1.2 95 163 1.4 3.9 999.5 0.0000 1.5000
21:23 1.9 1.2 95 156 1.1 2.5 999.5 0.0000 1.5000
21:33 1.8 1.1 95 162 0.8 2.2 999.6 0.0000 1.5000
21:47 1.8 1.1 95 151 1.1 2.5 999.5 0.0000 1.5000
21:58 1.7 1 95 156 0.8 1.7 999.5 0.0000 1.5000
22:08 1.7 1 95 149 0.8 2.2 999.4 0.1010 1.6000
22:18 1.7 1.1 96 152 1.1 2.5 999.4 0.1010 1.6000
22:28 1.7 1.1 96 162 1.1 2.8 999.6 0.1010 1.6000
22:38 1.7 1.1 96 154 1.1 3.1 999.3 0.1010 1.6000
22:48 1.7 1.1 96 169 1.1 1.9 999.4 0.1010 1.6000
22:58 1.7 1.1 96 160 0.8 2.2 999.3 0.0000 1.6000
23:08 1.7 1.1 96 156 0.8 1.7 999.3 0.1010 1.7000
23:22 1.7 1.1 96 147 0.8 1.7 999.2 0.2020 1.8000
23:31 1.6 1 96 149 0.8 3.6 999.3 0.3030 1.9000
23:41 1.5 0.9 96 152 0.8 1.9 999.1 0.4040 2.0000
23:50 1.4 0.8 96 151 1.1 2.2 999.1 0.5050 2.1000

DAY STATISTIC

2019-12-14
TEMPERATURE
AVERAGE
1.3
HIGH
1.9
21:12
LOW
0.6
04:40
PRESSURE
AVERAGE
1000.6
HIGH
1003.0
00:14
LOW
999.1
23:41
DEWPOINT
AVERAGE
0.7
HIGH
1.2
21:12
LOW
0.0
04:40
HUMIDITY
AVERAGE
96
HIGH
97
05:41
LOW
94
00:04
WIND SPEED
AVERAGE
0.9
HIGH
1.7
18:27
WIND GUST
AVERAGE
2.2
HIGH
3.9
18:17
WIND DIRECTION
PREVAILING
SE
69.1%
N
0.0
NE
0.0
E
0.7
SE
69.1
S
30.2
SW
0.0
W
0.0
NW
0.0
PRECIPITATION
RAIN HOUR
0.5
RAIN DAY
2.1
TEMPERATURE (°C)
LOW
0.6
HIGH
1.9
AVERAGE
1.3
PRESSURE (hpa)
LOW
999.1
HIGH
1003.0
AVERAGE
1000.6
DEVICE